createdAt,value
2023-01-23T00:03:49.623Z,22.30
2023-01-23T00:08:53.015Z,27.55
2023-01-23T00:13:57.151Z,25.73
2023-01-23T00:19:02.132Z,23.95
2023-01-23T00:24:06.314Z,19.52
2023-01-23T00:29:09.954Z,25.83
2023-01-23T00:34:15.335Z,23.38
2023-01-23T00:44:23.110Z,25.07
2023-01-23T00:49:28.067Z,20.02
2023-01-23T00:54:31.439Z,28.17
2023-01-23T00:59:34.778Z,29.88
2023-01-23T01:04:39.733Z,22.05
2023-01-23T01:09:42.900Z,30.38
2023-01-23T01:14:46.373Z,20.13
2023-01-23T01:19:53.044Z,23.58
2023-01-23T01:24:57.512Z,18.65
2023-01-23T01:30:00.757Z,22.23
2023-01-23T01:35:07.343Z,21.08
2023-01-23T01:40:15.358Z,24.02
2023-01-23T01:45:56.740Z,24.17
2023-01-23T01:51:04.124Z,29.35
2023-01-23T01:56:10.555Z,25.60
2023-01-23T02:01:14.208Z,29.02
2023-01-23T02:06:19.875Z,21.45
2023-01-23T02:11:23.613Z,22.42
2023-01-23T02:16:29.644Z,26.83
2023-01-23T02:21:37.101Z,26.48
2023-01-23T02:26:44.387Z,28.15
2023-01-23T02:31:49.800Z,28.25
2023-01-23T02:36:53.310Z,21.00
2023-01-23T02:41:59.555Z,27.08
2023-01-23T02:47:17.063Z,25.13
2023-01-23T02:52:20.345Z,26.48
2023-01-23T02:57:24.926Z,24.23
2023-01-23T03:02:28.373Z,26.08
2023-01-23T03:07:31.631Z,27.92
2023-01-23T03:12:42.451Z,29.20
2023-01-23T03:17:46.567Z,26.23
2023-01-23T03:22:50.639Z,23.17
2023-01-23T03:27:55.399Z,21.23
2023-01-23T03:32:58.901Z,28.33
2023-01-23T03:38:02.581Z,27.60
2023-01-23T03:43:07.632Z,32.55
2023-01-23T03:48:14.639Z,23.08
2023-01-23T03:53:19.658Z,30.30
2023-01-23T03:58:26.462Z,27.25
2023-01-23T04:03:30.492Z,23.30
2023-01-23T04:08:34.345Z,20.25
2023-01-23T04:13:39.605Z,23.70
2023-01-23T04:18:43.122Z,26.95
2023-01-23T04:23:46.944Z,28.85
2023-01-23T04:28:51.841Z,26.42
2023-01-23T04:33:55.163Z,29.60
2023-01-23T04:38:59.861Z,29.53
2023-01-23T04:44:21.151Z,30.10
2023-01-23T04:50:02.458Z,24.10
2023-01-23T04:55:10.054Z,27.80
2023-01-23T05:00:15.653Z,25.35
2023-01-23T05:05:21.225Z,26.75
2023-01-23T05:10:27.321Z,29.88
2023-01-23T05:15:34.175Z,21.83
2023-01-23T05:20:38.477Z,35.30
2023-01-23T05:25:41.880Z,28.02
2023-01-23T05:30:47.319Z,31.65
2023-01-23T05:36:00.376Z,31.07
2023-01-23T05:41:04.326Z,32.47
2023-01-23T05:46:44.651Z,26.77
2023-01-23T05:51:49.717Z,28.33
2023-01-23T05:56:53.167Z,25.45
2023-01-23T06:02:12.976Z,28.55
2023-01-23T06:07:55.082Z,26.33
2023-01-23T06:12:58.655Z,23.20
2023-01-23T06:18:03.618Z,21.98
2023-01-23T06:23:07.267Z,22.02
2023-01-23T06:28:10.618Z,26.27
2023-01-23T06:33:15.649Z,25.50
2023-01-23T06:38:19.332Z,34.03
2023-01-23T06:43:25.863Z,22.08
2023-01-23T06:48:31.613Z,23.75
2023-01-23T06:53:36.231Z,23.70
2023-01-23T06:58:39.879Z,27.70
2023-01-23T07:03:52.649Z,23.15
2023-01-23T07:08:56.569Z,21.80
2023-01-23T07:13:59.951Z,24.83
2023-01-23T07:19:06.120Z,22.60
2023-01-23T07:24:14.902Z,29.88
2023-01-23T07:29:18.265Z,24.05
2023-01-23T07:34:22.881Z,28.13
2023-01-23T07:39:26.398Z,29.02
2023-01-23T07:44:29.697Z,20.40
2023-01-23T07:49:34.569Z,25.52
2023-01-23T07:54:38.049Z,24.50
2023-01-23T07:59:41.486Z,40.50
2023-01-23T08:04:46.205Z,22.45
2023-01-23T08:09:49.612Z,24.75
2023-01-23T08:14:53.006Z,26.38
2023-01-23T08:19:57.709Z,28.73
2023-01-23T08:25:01.004Z,23.05
2023-01-23T08:30:05.625Z,29.98
2023-01-23T08:35:10.560Z,28.93
2023-01-23T08:40:14.042Z,24.98
2023-01-23T08:45:18.471Z,26.27
2023-01-23T08:50:23.242Z,30.70
2023-01-23T08:55:28.425Z,25.33
2023-01-23T09:00:31.659Z,20.58
2023-01-23T09:05:36.400Z,27.58
2023-01-23T09:10:39.769Z,28.33
2023-01-23T09:15:43.476Z,24.13
2023-01-23T09:20:48.144Z,24.88
2023-01-23T09:25:51.672Z,31.35
2023-01-23T09:30:55.027Z,23.52
2023-01-23T09:35:59.671Z,25.55
2023-01-23T09:41:09.737Z,29.40
2023-01-23T09:46:20.632Z,23.73
2023-01-23T09:51:29.727Z,25.40
2023-01-23T09:56:38.030Z,26.00
2023-01-23T10:01:41.416Z,31.73
2023-01-23T10:07:19.139Z,28.52
2023-01-23T10:12:37.285Z,23.98
2023-01-23T10:17:47.928Z,28.50
2023-01-23T10:23:05.243Z,25.60
2023-01-23T10:28:25.036Z,21.13
2023-01-23T10:33:36.330Z,23.42
2023-01-23T10:38:48.461Z,24.45
2023-01-23T10:50:16.422Z,29.95
2023-01-23T10:55:30.450Z,32.33
2023-01-23T11:00:36.440Z,23.67
2023-01-23T11:05:54.725Z,22.25
2023-01-23T11:11:19.684Z,21.10
2023-01-23T11:21:28.589Z,29.20
2023-01-23T11:26:34.287Z,19.92
2023-01-23T11:31:37.599Z,29.88
2023-01-23T11:36:48.666Z,24.67
2023-01-23T11:41:53.410Z,29.83
2023-01-23T11:47:18.937Z,25.40
2023-01-23T11:52:38.949Z,22.85
2023-01-23T11:57:55.572Z,24.52
2023-01-23T12:03:28.740Z,23.15
2023-01-23T12:08:41.553Z,26.58
2023-01-23T12:14:12.976Z,26.85
2023-01-23T12:19:34.156Z,17.70
2023-01-23T12:24:53.493Z,23.17
2023-01-23T12:30:32.496Z,19.75
2023-01-23T12:35:47.617Z,24.23
2023-01-23T12:46:05.870Z,18.70
2023-01-23T12:51:16.028Z,16.50
2023-01-23T12:56:24.497Z,26.30
2023-01-23T13:01:46.518Z,23.17
2023-01-23T13:07:14.348Z,28.55
2023-01-23T13:12:22.577Z,20.65
2023-01-23T13:17:31.045Z,25.67
2023-01-23T13:22:38.413Z,17.50
2023-01-23T13:27:50.521Z,24.70
2023-01-23T13:33:00.702Z,18.73
2023-01-23T13:38:37.571Z,18.65
2023-01-23T13:43:55.256Z,17.75
2023-01-23T14:21:49.346Z,15.82
2023-01-23T14:27:02.521Z,19.00
2023-01-23T14:32:22.801Z,16.00
2023-01-23T14:37:29.310Z,22.15
2023-01-23T14:42:33.822Z,15.70
2023-01-23T14:47:42.382Z,20.23
2023-01-23T14:52:57.310Z,19.30
2023-01-23T14:58:03.628Z,15.18
2023-01-23T15:03:08.427Z,16.17
2023-01-23T15:08:21.441Z,16.42
2023-01-23T15:13:29.190Z,15.75
2023-01-23T15:18:55.737Z,11.00
2023-01-23T15:24:27.699Z,19.85
2023-01-23T15:29:32.655Z,16.25
2023-01-23T15:34:36.151Z,17.63
2023-01-23T15:39:49.765Z,14.60
2023-01-23T15:44:53.394Z,16.98
2023-01-23T15:49:56.877Z,17.80
2023-01-23T15:55:04.629Z,13.15
2023-01-23T16:00:15.064Z,15.88
2023-01-23T16:05:18.699Z,17.38
2023-01-23T16:10:25.783Z,15.98
2023-01-23T16:15:30.568Z,16.50
2023-01-23T16:20:36.336Z,14.32
2023-01-23T16:25:45.018Z,15.65
2023-01-23T16:30:50.719Z,20.25
2023-01-23T16:41:01.571Z,19.20
2023-01-23T16:46:05.004Z,16.20
2023-01-23T16:51:17.039Z,12.32
2023-01-23T16:56:24.647Z,15.13
2023-01-23T17:01:30.042Z,13.48
2023-01-23T17:06:33.345Z,18.08
2023-01-23T17:11:41.060Z,16.40
2023-01-23T17:16:45.345Z,21.50
2023-01-23T17:21:49.563Z,22.33
2023-01-23T17:26:54.228Z,15.70
2023-01-23T17:31:57.926Z,12.85
2023-01-23T17:37:01.136Z,20.13
2023-01-23T17:42:05.932Z,19.48
2023-01-23T17:47:11.507Z,14.32
2023-01-23T17:52:15.147Z,16.33
2023-01-23T17:57:19.982Z,16.75
2023-01-23T18:02:27.009Z,19.25
2023-01-23T18:07:30.374Z,20.45
2023-01-23T18:12:44.825Z,15.95
2023-01-23T18:17:52.742Z,23.67
2023-01-23T18:22:56.946Z,17.02
2023-01-23T18:28:08.462Z,19.93
2023-01-23T18:33:41.132Z,20.90
2023-01-23T18:39:03.237Z,16.40
2023-01-23T18:44:16.305Z,16.23
2023-01-23T18:49:32.440Z,17.13
2023-01-23T18:54:42.725Z,20.08
2023-01-23T18:59:58.843Z,16.95
2023-01-23T19:05:21.105Z,14.43
2023-01-23T19:10:27.988Z,20.73
2023-01-23T19:15:38.482Z,18.90
2023-01-23T19:20:46.626Z,16.88
2023-01-23T19:25:50.168Z,18.60
2023-01-23T19:30:55.658Z,22.60
2023-01-23T19:35:59.865Z,16.92
2023-01-23T19:41:03.964Z,14.57
2023-01-23T19:46:09.167Z,14.95
2023-01-23T19:51:16.786Z,14.35
2023-01-23T19:56:20.144Z,17.05
2023-01-23T20:01:33.250Z,15.15
2023-01-23T20:06:40.390Z,12.25
2023-01-23T20:11:44.298Z,16.83
2023-01-23T20:16:48.891Z,17.48
2023-01-23T20:21:52.179Z,13.63
2023-01-23T20:26:55.474Z,16.00
2023-01-23T20:32:00.039Z,19.52
2023-01-23T20:37:03.315Z,17.83
2023-01-23T20:42:06.735Z,15.23
2023-01-23T20:47:11.377Z,14.65
2023-01-23T20:52:33.601Z,13.05
2023-01-23T20:58:03.142Z,16.42
2023-01-23T21:03:08.089Z,13.63
2023-01-23T21:08:11.436Z,14.52
2023-01-23T21:13:17.808Z,17.35
2023-01-23T21:18:22.425Z,17.77
2023-01-23T21:23:25.535Z,14.25
2023-01-23T21:28:30.693Z,17.80
2023-01-23T21:38:38.817Z,20.88
2023-01-23T21:43:42.032Z,18.02
2023-01-23T21:48:46.629Z,12.95
2023-01-23T21:53:50.572Z,17.17
2023-01-23T21:58:55.276Z,17.35
2023-01-23T22:04:01.313Z,16.90
2023-01-23T22:09:05.310Z,21.27
2023-01-23T22:14:08.581Z,18.42
2023-01-23T22:19:14.230Z,17.23
2023-01-23T22:24:17.572Z,23.10
2023-01-23T22:29:22.805Z,16.98
2023-01-23T22:34:27.892Z,19.75
2023-01-23T22:39:31.392Z,22.05
2023-01-23T22:44:34.885Z,18.30
2023-01-23T22:49:39.384Z,21.65
2023-01-23T22:54:42.646Z,16.57
2023-01-23T22:59:47.783Z,26.23
2023-01-23T23:04:53.004Z,21.92
2023-01-23T23:09:56.325Z,23.73
2023-01-23T23:14:59.810Z,24.58
2023-01-23T23:20:06.909Z,25.95
2023-01-23T23:25:10.868Z,21.13
2023-01-23T23:30:15.134Z,17.80
2023-01-23T23:35:20.369Z,29.03
2023-01-23T23:40:23.720Z,21.90
2023-01-23T23:45:27.217Z,24.92
2023-01-23T23:50:32.976Z,17.67
2023-01-23T23:55:36.144Z,22.75
